createdAt,value
2018-08-06T00:01:31.657Z,3.83
2018-08-06T00:03:59.747Z,4.25
2018-08-06T00:06:27.894Z,4.10
2018-08-06T00:08:55.983Z,4.55
2018-08-06T00:11:24.113Z,3.70
2018-08-06T00:13:52.337Z,3.30
2018-08-06T00:16:20.448Z,4.17
2018-08-06T00:18:48.602Z,5.55
2018-08-06T00:21:16.740Z,3.42
2018-08-06T00:23:46.229Z,3.75
2018-08-06T00:26:14.366Z,3.80
2018-08-06T00:28:43.041Z,4.60
2018-08-06T00:31:11.206Z,4.08
2018-08-06T00:33:39.397Z,4.47
2018-08-06T00:36:09.116Z,4.30
2018-08-06T00:38:37.310Z,5.85
2018-08-06T00:41:05.458Z,3.80
2018-08-06T00:43:33.792Z,3.85
2018-08-06T00:46:02.010Z,3.80
2018-08-06T00:48:30.154Z,4.50
2018-08-06T00:50:58.288Z,3.80
2018-08-06T00:53:26.404Z,3.92
2018-08-06T00:55:54.512Z,4.10
2018-08-06T00:58:22.610Z,4.30
2018-08-06T01:00:50.710Z,4.20
2018-08-06T01:03:20.168Z,5.28
2018-08-06T01:05:48.254Z,4.80
2018-08-06T01:08:16.369Z,3.60
2018-08-06T01:10:44.472Z,4.20
2018-08-06T01:13:12.657Z,3.55
2018-08-06T01:15:40.776Z,3.90
2018-08-06T01:18:10.021Z,4.62
2018-08-06T01:20:38.120Z,4.28
2018-08-06T01:23:06.285Z,5.10
2018-08-06T01:25:34.423Z,4.87
2018-08-06T01:28:02.531Z,3.90
2018-08-06T01:30:30.674Z,5.08
2018-08-06T01:32:59.561Z,4.80
2018-08-06T01:35:27.627Z,3.85
2018-08-06T01:37:57.112Z,4.95
2018-08-06T01:40:25.233Z,3.75
2018-08-06T01:42:53.521Z,4.33
2018-08-06T01:45:21.776Z,4.25
2018-08-06T01:47:50.462Z,4.25
2018-08-06T01:50:18.605Z,4.87
2018-08-06T01:52:48.989Z,3.83
2018-08-06T01:55:17.127Z,4.47
2018-08-06T01:57:45.270Z,4.03
2018-08-06T02:00:14.858Z,4.15
2018-08-06T02:02:43.064Z,4.33
2018-08-06T02:05:11.547Z,4.50
2018-08-06T02:07:40.163Z,4.60
2018-08-06T02:10:12.660Z,3.72
2018-08-06T02:12:45.891Z,3.40
2018-08-06T02:15:14.280Z,3.20
2018-08-06T02:17:42.432Z,4.55
2018-08-06T02:20:14.228Z,4.50
2018-08-06T02:22:43.303Z,5.10
2018-08-06T02:25:11.663Z,4.50
2018-08-06T02:27:40.016Z,4.12
2018-08-06T02:30:13.472Z,4.50
2018-08-06T02:32:41.732Z,3.80
2018-08-06T02:35:12.082Z,4.00
2018-08-06T02:37:40.906Z,3.98
2018-08-06T02:40:12.857Z,4.40
2018-08-06T02:42:41.063Z,4.15
2018-08-06T02:45:10.940Z,4.67
2018-08-06T02:47:39.836Z,3.98
2018-08-06T02:50:09.112Z,5.03
2018-08-06T02:52:37.236Z,6.20
2018-08-06T02:55:06.873Z,4.00
2018-08-06T02:57:36.564Z,4.87
2018-08-06T03:00:07.478Z,4.42
2018-08-06T03:02:35.646Z,4.47
2018-08-06T03:05:04.553Z,4.25
2018-08-06T03:07:32.659Z,4.40
2018-08-06T03:10:00.801Z,5.33
2018-08-06T03:12:30.637Z,3.90
2018-08-06T03:14:58.863Z,5.08
2018-08-06T03:17:26.972Z,4.92
2018-08-06T03:19:55.115Z,3.65
2018-08-06T03:22:23.232Z,4.53
2018-08-06T03:24:51.391Z,4.00
2018-08-06T03:27:19.880Z,5.22
2018-08-06T03:29:47.973Z,4.00
2018-08-06T03:32:16.214Z,4.05
2018-08-06T03:34:44.300Z,4.92
2018-08-06T03:37:12.436Z,4.45
2018-08-06T03:39:40.534Z,5.33
2018-08-06T03:42:10.118Z,5.55
2018-08-06T03:44:38.240Z,4.83
2018-08-06T03:47:06.700Z,4.65
2018-08-06T03:49:34.924Z,4.85
2018-08-06T03:52:03.086Z,4.65
2018-08-06T03:54:31.250Z,4.00
2018-08-06T03:56:59.384Z,4.05
2018-08-06T03:59:27.546Z,4.50
2018-08-06T04:01:55.830Z,4.80
2018-08-06T04:04:24.013Z,4.83
2018-08-06T04:06:52.116Z,5.60
2018-08-06T04:09:20.190Z,5.10
2018-08-06T04:11:48.267Z,4.03
2018-08-06T04:14:16.387Z,5.17
2018-08-06T04:16:44.592Z,4.85
2018-08-06T04:19:13.933Z,5.83
2018-08-06T04:21:42.040Z,4.90
2018-08-06T04:24:10.358Z,5.62
2018-08-06T04:26:39.201Z,5.35
2018-08-06T04:29:08.170Z,5.08
2018-08-06T04:31:36.941Z,4.85
2018-08-06T04:34:05.339Z,4.90
2018-08-06T04:36:34.174Z,5.78
2018-08-06T04:39:02.400Z,5.25
2018-08-06T04:41:30.467Z,3.92
2018-08-06T04:43:58.580Z,4.53
2018-08-06T04:46:26.704Z,4.87
2018-08-06T04:48:54.867Z,4.78
2018-08-06T04:51:22.959Z,3.77
2018-08-06T04:53:51.784Z,4.80
2018-08-06T04:56:20.071Z,3.98
2018-08-06T04:58:48.229Z,4.10
2018-08-06T05:01:16.380Z,4.80
2018-08-06T05:03:44.665Z,4.95
2018-08-06T05:06:12.846Z,4.30
2018-08-06T05:08:41.021Z,4.10
2018-08-06T05:11:09.171Z,4.20
2018-08-06T05:13:37.430Z,5.00
2018-08-06T05:16:05.569Z,3.90
2018-08-06T05:18:33.786Z,4.33
2018-08-06T05:21:01.916Z,3.27
2018-08-06T05:23:44.517Z,4.22
2018-08-06T05:26:12.624Z,4.17
2018-08-06T05:28:40.692Z,5.10
2018-08-06T05:31:08.816Z,3.45
2018-08-06T05:33:36.909Z,5.30
2018-08-06T05:36:05.093Z,3.77
2018-08-06T05:38:33.188Z,3.73
2018-08-06T05:41:01.232Z,3.40
2018-08-06T05:43:29.324Z,4.80
2018-08-06T05:45:57.420Z,4.57
2018-08-06T05:48:25.522Z,4.17
2018-08-06T05:50:53.638Z,6.53
2018-08-06T05:53:21.803Z,5.93
2018-08-06T05:55:49.911Z,5.03
2018-08-06T05:58:18.003Z,4.90
2018-08-06T06:00:46.099Z,4.23
2018-08-06T06:03:14.283Z,6.23
2018-08-06T06:05:42.388Z,3.43
2018-08-06T06:08:10.536Z,4.80
2018-08-06T06:10:38.648Z,5.17
2018-08-06T06:13:06.757Z,4.53
2018-08-06T06:15:34.926Z,4.00
2018-08-06T06:18:03.091Z,5.10
2018-08-06T06:20:31.180Z,5.07
2018-08-06T06:22:59.331Z,4.37
2018-08-06T06:25:27.459Z,3.90
2018-08-06T06:27:55.633Z,4.07
2018-08-06T06:30:23.691Z,3.00
2018-08-06T06:32:51.780Z,3.00
2018-08-06T06:35:19.919Z,4.23
2018-08-06T06:37:48.077Z,3.67
2018-08-06T06:40:16.422Z,4.20
2018-08-06T06:42:44.506Z,4.87
2018-08-06T06:45:12.600Z,4.50
2018-08-06T06:47:40.710Z,6.03
2018-08-06T06:50:09.125Z,3.63
2018-08-06T06:52:37.207Z,2.63
2018-08-06T06:55:07.889Z,5.43
2018-08-06T06:57:36.003Z,2.93
2018-08-06T07:00:05.867Z,2.53
2018-08-06T07:02:33.882Z,2.60
2018-08-06T07:05:01.968Z,2.47
2018-08-06T07:07:30.080Z,2.10
2018-08-06T07:09:58.285Z,2.80
2018-08-06T07:12:26.347Z,2.83
2018-08-06T07:14:54.403Z,2.47
2018-08-06T07:17:22.556Z,3.37
2018-08-06T07:19:50.690Z,2.90
2018-08-06T07:22:18.808Z,2.30
2018-08-06T07:24:46.996Z,2.93
2018-08-06T07:27:15.059Z,2.13
2018-08-06T07:29:43.166Z,1.90
2018-08-06T07:32:11.263Z,3.20
2018-08-06T07:34:39.381Z,2.80
2018-08-06T07:37:07.471Z,2.37
2018-08-06T07:39:35.592Z,2.23
2018-08-06T07:42:03.731Z,3.17
2018-08-06T07:44:31.829Z,4.77
2018-08-06T07:47:00.032Z,3.00
2018-08-06T07:49:28.131Z,3.13
2018-08-06T07:51:56.284Z,2.70
2018-08-06T07:54:24.368Z,4.40
2018-08-06T07:56:52.472Z,6.10
2018-08-06T07:59:20.637Z,2.57
2018-08-06T08:01:48.737Z,3.07
2018-08-06T08:04:16.842Z,2.70
2018-08-06T08:06:44.989Z,3.00
2018-08-06T08:09:13.156Z,4.57
2018-08-06T08:11:41.386Z,2.53
2018-08-06T08:14:09.939Z,2.13
2018-08-06T08:16:38.058Z,2.97
2018-08-06T08:19:06.182Z,3.97
2018-08-06T08:21:34.333Z,1.93
2018-08-06T08:24:02.398Z,1.70
2018-08-06T08:26:30.467Z,2.90
2018-08-06T08:28:58.562Z,2.90
2018-08-06T08:31:26.909Z,3.10
2018-08-06T08:33:55.027Z,3.00
2018-08-06T08:36:23.193Z,2.80
2018-08-06T08:38:51.399Z,1.80
2018-08-06T08:41:19.516Z,3.77
2018-08-06T08:43:47.660Z,2.60
2018-08-06T08:46:15.767Z,2.30
2018-08-06T08:48:44.041Z,2.03
2018-08-06T08:51:12.131Z,1.50
2018-08-06T08:53:40.252Z,2.60
2018-08-06T08:56:08.367Z,3.30
2018-08-06T08:58:36.663Z,3.13
2018-08-06T09:01:04.806Z,2.33
2018-08-06T09:03:32.963Z,1.87
2018-08-06T09:06:01.055Z,2.87
2018-08-06T09:08:29.168Z,2.90
2018-08-06T09:10:57.357Z,2.40
2018-08-06T09:13:25.590Z,5.03
2018-08-06T09:15:53.761Z,3.13
2018-08-06T09:18:21.835Z,2.20
2018-08-06T09:20:49.957Z,2.57
2018-08-06T09:23:18.069Z,4.13
2018-08-06T09:25:46.168Z,3.13
2018-08-06T09:28:14.246Z,2.53
2018-08-06T09:30:42.363Z,4.83
2018-08-06T09:33:10.502Z,6.00
2018-08-06T09:35:38.659Z,2.80
2018-08-06T09:38:06.752Z,6.40
2018-08-06T09:40:34.901Z,2.40
2018-08-06T09:43:02.976Z,2.80
2018-08-06T09:45:31.081Z,3.03
2018-08-06T09:47:59.264Z,2.20
2018-08-06T09:50:27.407Z,3.87
2018-08-06T09:52:55.578Z,3.27
2018-08-06T09:55:26.127Z,3.70
2018-08-06T09:57:54.247Z,3.43
2018-08-06T10:00:28.138Z,3.73
2018-08-06T10:02:57.676Z,1.70
2018-08-06T10:05:26.387Z,6.47
2018-08-06T10:07:54.777Z,2.20
2018-08-06T10:10:22.986Z,2.13
2018-08-06T10:12:50.952Z,2.07
2018-08-06T10:15:19.481Z,2.03
2018-08-06T10:17:48.980Z,2.20
2018-08-06T10:20:18.389Z,2.10
2018-08-06T10:22:46.507Z,2.30
2018-08-06T10:25:15.304Z,3.17
2018-08-06T10:27:44.128Z,3.07
2018-08-06T10:30:13.853Z,2.10
2018-08-06T10:32:41.997Z,3.33
2018-08-06T10:35:11.016Z,3.97
2018-08-06T10:37:39.318Z,3.10
2018-08-06T10:40:13.807Z,4.33
2018-08-06T10:42:42.548Z,3.27
2018-08-06T10:45:17.679Z,2.33
2018-08-06T10:47:45.896Z,2.60
2018-08-06T10:50:14.034Z,2.20
2018-08-06T10:52:42.198Z,2.63
2018-08-06T10:55:10.848Z,2.53
2018-08-06T10:57:40.072Z,3.53
2018-08-06T11:00:10.806Z,2.70
2018-08-06T11:02:38.928Z,3.20
2018-08-06T11:05:08.363Z,3.40
2018-08-06T11:07:36.586Z,5.93
2018-08-06T11:10:06.742Z,2.13
2018-08-06T11:12:34.901Z,2.97
2018-08-06T11:15:03.079Z,2.80
2018-08-06T11:17:31.230Z,3.47
2018-08-06T11:19:59.409Z,2.57
2018-08-06T11:22:27.531Z,2.37
2018-08-06T11:24:55.616Z,3.20
2018-08-06T11:27:23.716Z,3.43
2018-08-06T11:29:52.245Z,1.67
2018-08-06T11:32:20.323Z,2.50
2018-08-06T11:34:48.380Z,1.80
2018-08-06T11:37:16.476Z,2.40
2018-08-06T11:39:44.578Z,2.40
2018-08-06T11:42:12.709Z,2.60
2018-08-06T11:44:40.978Z,3.90
2018-08-06T11:47:09.161Z,2.30
2018-08-06T11:49:37.281Z,1.97
2018-08-06T11:52:05.361Z,2.50
2018-08-06T11:54:33.488Z,2.57
2018-08-06T11:57:01.622Z,2.43
2018-08-06T11:59:29.757Z,2.17
2018-08-06T12:01:57.992Z,2.40
2018-08-06T12:04:26.105Z,2.70
2018-08-06T12:06:54.170Z,3.00
2018-08-06T12:09:22.286Z,4.23
2018-08-06T12:11:50.351Z,5.57
2018-08-06T12:14:18.454Z,3.30
2018-08-06T12:16:46.566Z,2.50
2018-08-06T12:19:14.637Z,2.00
2018-08-06T12:21:42.817Z,1.90
2018-08-06T12:24:10.951Z,4.50
2018-08-06T12:26:39.085Z,1.87
2018-08-06T12:29:07.230Z,1.77
2018-08-06T12:31:35.630Z,1.73
2018-08-06T12:34:03.837Z,2.13
2018-08-06T12:36:31.944Z,2.33
2018-08-06T12:39:09.447Z,1.73
2018-08-06T12:41:37.646Z,2.37
2018-08-06T12:44:06.865Z,3.30
2018-08-06T12:46:35.045Z,2.40
2018-08-06T12:49:03.136Z,1.93
2018-08-06T12:51:31.223Z,1.80
2018-08-06T12:53:59.402Z,2.30
2018-08-06T12:56:27.555Z,1.77
2018-08-06T12:58:55.850Z,2.23
2018-08-06T13:01:23.915Z,2.00
2018-08-06T13:03:52.097Z,2.90
2018-08-06T13:06:20.217Z,2.03
2018-08-06T13:08:48.325Z,1.40
2018-08-06T13:11:16.712Z,1.50
2018-08-06T13:13:44.836Z,1.80
2018-08-06T13:16:13.030Z,2.00
2018-08-06T13:18:41.372Z,3.20
2018-08-06T13:21:09.594Z,3.43
2018-08-06T13:23:37.683Z,1.33
2018-08-06T13:26:05.993Z,2.40
2018-08-06T13:28:34.088Z,2.30
2018-08-06T13:31:02.237Z,6.53
2018-08-06T13:33:30.331Z,1.50
2018-08-06T13:35:58.538Z,1.97
2018-08-06T13:38:26.988Z,3.03
2018-08-06T13:40:55.092Z,3.97
2018-08-06T13:43:23.207Z,1.53
2018-08-06T13:45:51.331Z,1.43
2018-08-06T13:48:19.519Z,1.57
2018-08-06T13:50:47.633Z,1.83
2018-08-06T13:53:15.810Z,2.53
2018-08-06T13:55:43.892Z,1.63
2018-08-06T13:58:12.003Z,1.90
2018-08-06T14:00:40.169Z,1.50
2018-08-06T14:03:08.296Z,2.53
2018-08-06T14:05:36.432Z,2.57
2018-08-06T14:08:04.563Z,1.70
2018-08-06T14:10:32.712Z,1.43
2018-08-06T14:13:00.841Z,2.40
2018-08-06T14:15:28.937Z,1.90
2018-08-06T14:17:57.177Z,3.83
2018-08-06T14:20:25.321Z,1.57
2018-08-06T14:22:53.374Z,1.83
2018-08-06T14:25:21.482Z,3.20
2018-08-06T14:27:49.703Z,2.87
2018-08-06T14:30:18.045Z,2.50
2018-08-06T14:32:46.261Z,2.00
2018-08-06T14:35:14.913Z,3.60
2018-08-06T14:37:43.101Z,2.83
2018-08-06T14:40:13.900Z,2.17
2018-08-06T14:42:42.196Z,2.00
2018-08-06T14:45:10.893Z,1.87
2018-08-06T14:47:38.999Z,1.80
2018-08-06T14:50:08.717Z,2.17
2018-08-06T14:52:36.802Z,1.43
2018-08-06T14:55:05.333Z,1.57
2018-08-06T14:57:38.852Z,4.57
2018-08-06T15:00:10.860Z,1.80
2018-08-06T15:02:39.409Z,1.83
2018-08-06T15:05:07.663Z,1.70
2018-08-06T15:07:35.882Z,1.40
2018-08-06T15:10:04.796Z,1.70
2018-08-06T15:12:32.988Z,2.70
2018-08-06T15:15:01.159Z,3.73
2018-08-06T15:17:29.432Z,2.70
2018-08-06T15:19:57.589Z,1.83
2018-08-06T15:22:25.783Z,3.30
2018-08-06T15:24:53.867Z,1.80
2018-08-06T15:27:22.023Z,2.90
2018-08-06T15:29:50.177Z,2.23
2018-08-06T15:32:18.299Z,1.70
2018-08-06T15:34:46.411Z,2.03
2018-08-06T15:37:14.584Z,2.13
2018-08-06T15:39:42.717Z,1.30
2018-08-06T15:42:10.844Z,1.60
2018-08-06T15:44:38.969Z,1.93
2018-08-06T15:47:07.105Z,1.77
2018-08-06T15:49:35.244Z,2.23
2018-08-06T15:52:03.344Z,2.23
2018-08-06T15:54:31.539Z,2.03
2018-08-06T15:56:59.644Z,3.10
2018-08-06T15:59:27.984Z,1.20
2018-08-06T16:01:56.099Z,2.00
2018-08-06T16:04:24.245Z,1.57
2018-08-06T16:06:52.356Z,1.97
2018-08-06T16:09:20.507Z,1.83
2018-08-06T16:11:48.734Z,2.80
2018-08-06T16:14:17.129Z,3.23
2018-08-06T16:16:45.268Z,2.00
2018-08-06T16:19:13.436Z,1.50
2018-08-06T16:21:41.526Z,2.43
2018-08-06T16:24:09.644Z,2.40
2018-08-06T16:26:37.740Z,1.50
2018-08-06T16:29:06.060Z,1.60
2018-08-06T16:31:34.152Z,2.20
2018-08-06T16:34:02.264Z,2.47
2018-08-06T16:36:30.331Z,1.70
2018-08-06T16:38:58.461Z,2.10
2018-08-06T16:41:26.713Z,1.67
2018-08-06T16:43:54.808Z,1.70
2018-08-06T16:46:22.897Z,2.07
2018-08-06T16:48:51.032Z,1.73
2018-08-06T16:51:19.156Z,1.60
2018-08-06T16:53:47.228Z,1.20
2018-08-06T16:56:15.372Z,2.50
2018-08-06T16:58:43.415Z,1.47
2018-08-06T17:01:11.551Z,1.50
2018-08-06T17:03:39.653Z,3.30
2018-08-06T17:06:07.837Z,1.73
2018-08-06T17:08:35.890Z,4.33
2018-08-06T17:11:04.049Z,3.70
2018-08-06T17:13:32.202Z,1.80
2018-08-06T17:16:00.292Z,1.57
2018-08-06T17:18:28.405Z,2.33
2018-08-06T17:20:56.500Z,2.70
2018-08-06T17:23:24.648Z,1.40
2018-08-06T17:25:52.947Z,4.63
2018-08-06T17:28:21.088Z,5.20
2018-08-06T17:30:49.257Z,4.67
2018-08-06T17:33:17.308Z,2.40
2018-08-06T17:35:45.363Z,2.83
2018-08-06T17:38:13.546Z,2.17
2018-08-06T17:40:41.661Z,1.60
2018-08-06T17:43:09.709Z,1.73
2018-08-06T17:45:37.877Z,2.07
2018-08-06T17:48:06.197Z,1.50
2018-08-06T17:50:34.305Z,2.70
2018-08-06T17:53:02.575Z,2.60
2018-08-06T17:55:30.675Z,1.87
2018-08-06T17:57:58.870Z,2.13
2018-08-06T18:00:26.948Z,1.80
2018-08-06T18:02:55.078Z,2.27
2018-08-06T18:05:23.209Z,2.03
2018-08-06T18:07:51.283Z,1.60
2018-08-06T18:10:19.397Z,2.90
2018-08-06T18:12:47.798Z,4.40
2018-08-06T18:15:15.953Z,5.87
2018-08-06T18:17:44.032Z,1.60
2018-08-06T18:20:14.109Z,2.70
2018-08-06T18:22:42.214Z,1.87
2018-08-06T18:25:12.653Z,1.87
2018-08-06T18:27:40.758Z,3.03
2018-08-06T18:30:11.940Z,2.20
2018-08-06T18:32:40.104Z,3.27
2018-08-06T18:35:09.353Z,1.70
2018-08-06T18:37:37.553Z,2.67
2018-08-06T18:40:06.255Z,1.70
2018-08-06T18:42:34.336Z,1.97
2018-08-06T18:45:02.479Z,3.43
2018-08-06T18:47:30.580Z,1.43
2018-08-06T18:49:58.868Z,2.30
2018-08-06T18:52:27.041Z,1.70
2018-08-06T18:54:55.223Z,1.50
2018-08-06T18:57:23.364Z,2.13
2018-08-06T18:59:51.465Z,2.80
2018-08-06T19:02:20.356Z,2.27
2018-08-06T19:04:48.460Z,4.70
2018-08-06T19:07:16.583Z,2.03
2018-08-06T19:09:44.749Z,1.67
2018-08-06T19:12:18.160Z,1.80
2018-08-06T19:14:46.273Z,1.40
2018-08-06T19:17:14.388Z,1.50
2018-08-06T19:19:42.527Z,2.80
2018-08-06T19:22:10.595Z,1.50
2018-08-06T19:24:44.224Z,1.50
2018-08-06T19:27:12.339Z,2.00
2018-08-06T19:29:40.379Z,2.43
2018-08-06T19:32:08.880Z,1.80
2018-08-06T19:34:37.102Z,1.83
2018-08-06T19:37:10.638Z,2.10
2018-08-06T19:39:38.775Z,1.90
2018-08-06T19:42:06.904Z,1.83
2018-08-06T19:44:35.029Z,1.80
2018-08-06T19:47:03.096Z,1.57
2018-08-06T19:49:36.540Z,2.10
2018-08-06T19:52:04.686Z,2.20
2018-08-06T19:54:32.809Z,1.90
2018-08-06T19:57:00.885Z,2.03
2018-08-06T19:59:29.068Z,2.93
2018-08-06T20:01:57.116Z,2.70
2018-08-06T20:04:25.381Z,1.70
2018-08-06T20:06:53.499Z,1.83
2018-08-06T20:09:21.547Z,3.23
2018-08-06T20:11:49.678Z,1.50
2018-08-06T20:14:17.794Z,2.43
2018-08-06T20:16:45.914Z,2.30
2018-08-06T20:19:14.138Z,3.53
2018-08-06T20:21:42.239Z,1.60
2018-08-06T20:24:10.357Z,2.20
2018-08-06T20:26:38.484Z,4.60
2018-08-06T20:29:06.571Z,1.57
2018-08-06T20:31:34.664Z,1.87
2018-08-06T20:34:02.924Z,1.90
2018-08-06T20:36:31.297Z,1.60
2018-08-06T20:38:59.445Z,1.70
2018-08-06T20:41:27.617Z,2.73
2018-08-06T20:43:55.696Z,1.50
2018-08-06T20:46:23.806Z,2.30
2018-08-06T20:48:51.936Z,1.80
2018-08-06T20:51:20.058Z,2.00
2018-08-06T20:53:48.178Z,1.80
2018-08-06T20:56:16.236Z,1.80
2018-08-06T20:58:44.311Z,1.73
2018-08-06T21:01:12.432Z,3.00
2018-08-06T21:03:40.605Z,2.00
2018-08-06T21:06:08.669Z,2.27
2018-08-06T21:08:36.784Z,2.40
2018-08-06T21:11:04.885Z,2.67
2018-08-06T21:13:32.939Z,3.13
2018-08-06T21:16:01.081Z,1.60
2018-08-06T21:18:29.160Z,1.70
2018-08-06T21:20:57.337Z,1.70
2018-08-06T21:23:25.436Z,1.60
2018-08-06T21:25:53.549Z,2.07
2018-08-06T21:28:21.611Z,1.90
2018-08-06T21:30:49.728Z,2.13
2018-08-06T21:33:17.806Z,2.60
2018-08-06T21:35:45.937Z,2.20
2018-08-06T21:38:13.988Z,1.80
2018-08-06T21:40:42.105Z,1.70
2018-08-06T21:43:10.181Z,3.03
2018-08-06T21:45:38.237Z,2.33
2018-08-06T21:48:06.293Z,2.33
2018-08-06T21:50:34.456Z,1.60
2018-08-06T21:53:02.503Z,1.77
2018-08-06T21:55:30.577Z,2.97
2018-08-06T21:57:58.635Z,1.70
2018-08-06T22:00:32.113Z,2.07
2018-08-06T22:03:00.535Z,2.33
2018-08-06T22:05:30.203Z,2.00
2018-08-06T22:07:58.304Z,1.90
2018-08-06T22:10:26.483Z,1.60
2018-08-06T22:12:54.648Z,1.70
2018-08-06T22:15:22.773Z,1.70
2018-08-06T22:17:50.856Z,2.73
2018-08-06T22:20:18.984Z,1.63
2018-08-06T22:22:47.074Z,2.27
2018-08-06T22:25:15.120Z,2.43
2018-08-06T22:27:43.281Z,1.90
2018-08-06T22:30:11.887Z,2.60
2018-08-06T22:32:40.008Z,1.83
2018-08-06T22:35:10.234Z,2.10
2018-08-06T22:37:38.323Z,2.93
2018-08-06T22:40:07.744Z,1.80
2018-08-06T22:42:35.867Z,1.90
2018-08-06T22:45:04.553Z,2.13
2018-08-06T22:47:32.896Z,2.93
2018-08-06T22:50:01.240Z,1.63
2018-08-06T22:52:29.355Z,1.53
2018-08-06T22:54:57.427Z,1.87
2018-08-06T22:57:25.587Z,2.10
2018-08-06T22:59:53.731Z,3.80
2018-08-06T23:02:21.841Z,1.90
2018-08-06T23:04:49.919Z,1.83
2018-08-06T23:07:18.043Z,1.97
2018-08-06T23:09:46.146Z,2.13
2018-08-06T23:12:14.310Z,1.20
2018-08-06T23:14:42.422Z,2.00
2018-08-06T23:17:10.520Z,2.00
2018-08-06T23:19:38.668Z,2.43
2018-08-06T23:22:06.790Z,1.67
2018-08-06T23:24:34.907Z,1.70
2018-08-06T23:27:03.068Z,2.23
2018-08-06T23:29:31.222Z,1.83
2018-08-06T23:31:59.307Z,1.70
2018-08-06T23:34:27.398Z,2.27
2018-08-06T23:36:55.493Z,2.40
2018-08-06T23:39:23.612Z,2.27
2018-08-06T23:41:51.746Z,1.67
2018-08-06T23:44:19.836Z,1.73
2018-08-06T23:46:47.988Z,2.20
2018-08-06T23:49:16.095Z,3.17
2018-08-06T23:51:44.228Z,1.77
2018-08-06T23:54:12.311Z,1.70
2018-08-06T23:56:40.436Z,1.57
2018-08-06T23:59:08.597Z,1.97
